createdAt,value
2019-03-20T00:00:56.393Z,69.47
2019-03-20T00:03:27.024Z,57.53
2019-03-20T00:05:58.918Z,56.68
2019-03-20T00:08:29.876Z,61.60
2019-03-20T00:11:00.734Z,54.70
2019-03-20T00:13:31.575Z,52.60
2019-03-20T00:16:02.443Z,52.27
2019-03-20T00:18:33.203Z,54.00
2019-03-20T00:21:03.851Z,52.80
2019-03-20T00:23:34.708Z,53.70
2019-03-20T00:26:05.341Z,53.05
2019-03-20T00:28:36.099Z,52.30
2019-03-20T00:31:06.765Z,54.18
2019-03-20T00:33:37.621Z,47.25
2019-03-20T00:36:08.375Z,49.38
2019-03-20T00:38:39.116Z,51.83
2019-03-20T00:41:09.776Z,55.12
2019-03-20T00:43:40.619Z,48.05
2019-03-20T00:46:11.388Z,52.05
2019-03-20T00:48:42.124Z,59.23
2019-03-20T00:51:12.997Z,59.33
2019-03-20T00:53:43.853Z,58.23
2019-03-20T00:56:14.609Z,50.90
2019-03-20T00:58:45.262Z,53.10
2019-03-20T01:01:16.524Z,49.40
2019-03-20T01:03:47.261Z,46.63
2019-03-20T01:06:19.055Z,54.18
2019-03-20T01:08:49.400Z,54.08
2019-03-20T01:11:20.241Z,56.90
2019-03-20T01:13:51.115Z,56.60
2019-03-20T01:16:21.869Z,50.67
2019-03-20T01:18:52.503Z,53.87
2019-03-20T01:21:23.372Z,55.45
2019-03-20T01:23:54.227Z,51.33
2019-03-20T01:26:24.863Z,47.38
2019-03-20T01:31:25.497Z,52.60
2019-03-20T01:33:56.120Z,53.92
2019-03-20T01:36:26.771Z,51.95
2019-03-20T01:38:57.633Z,53.83
2019-03-20T01:41:37.607Z,57.70
2019-03-20T01:44:00.449Z,47.88
2019-03-20T01:46:31.103Z,58.83
2019-03-20T01:49:01.971Z,51.68
2019-03-20T01:51:32.809Z,58.13
2019-03-20T01:54:03.583Z,56.30
2019-03-20T01:56:34.218Z,64.17
2019-03-20T01:59:04.968Z,55.40
2019-03-20T02:01:35.876Z,61.13
2019-03-20T02:04:06.596Z,78.80
2019-03-20T02:06:38.269Z,83.00
2019-03-20T02:09:08.720Z,87.60
2019-03-20T02:11:39.573Z,94.72
2019-03-20T02:14:10.432Z,87.57
2019-03-20T02:16:41.188Z,98.17
2019-03-20T02:19:11.836Z,92.20
2019-03-20T02:21:42.690Z,80.40
2019-03-20T02:24:13.549Z,75.75
2019-03-20T02:26:44.301Z,90.80
2019-03-20T02:29:14.837Z,90.72
2019-03-20T02:31:45.708Z,88.17
2019-03-20T02:34:16.465Z,86.85
2019-03-20T02:36:47.215Z,84.42
2019-03-20T02:39:17.868Z,89.77
2019-03-20T02:41:48.724Z,91.82
2019-03-20T02:44:19.477Z,93.30
2019-03-20T02:46:50.236Z,86.87
2019-03-20T02:49:21.087Z,82.88
2019-03-20T02:51:51.947Z,81.95
2019-03-20T02:54:22.681Z,73.10
2019-03-20T02:59:23.287Z,76.97
2019-03-20T03:01:56.493Z,75.00
2019-03-20T03:04:27.246Z,71.15
2019-03-20T03:06:59.025Z,71.25
2019-03-20T03:09:29.351Z,74.40
2019-03-20T03:12:00.225Z,68.57
2019-03-20T03:14:31.080Z,72.78
2019-03-20T03:17:01.815Z,61.53
2019-03-20T03:19:49.488Z,62.65
2019-03-20T03:22:20.302Z,73.28
2019-03-20T03:24:51.190Z,71.97
2019-03-20T03:27:21.927Z,73.47
2019-03-20T03:29:52.462Z,78.87
2019-03-20T03:32:23.337Z,85.85
2019-03-20T03:34:54.089Z,66.57
2019-03-20T03:37:24.857Z,78.42
2019-03-20T03:39:55.372Z,70.17
2019-03-20T03:42:26.250Z,76.62
2019-03-20T03:44:57.006Z,83.17
2019-03-20T03:47:27.738Z,75.42
2019-03-20T03:49:58.289Z,76.60
2019-03-20T03:52:29.179Z,71.62
2019-03-20T03:54:59.933Z,80.55
2019-03-20T03:57:30.573Z,82.12
2019-03-20T04:00:01.228Z,74.92
2019-03-20T04:02:31.985Z,76.77
2019-03-20T04:05:02.830Z,83.37
2019-03-20T04:07:34.618Z,71.85
2019-03-20T04:10:08.330Z,75.10
2019-03-20T04:12:39.078Z,76.05
2019-03-20T04:15:16.543Z,90.32
2019-03-20T04:17:47.037Z,104.92
2019-03-20T04:20:18.720Z,123.72
2019-03-20T04:22:49.155Z,123.67
2019-03-20T04:25:19.791Z,110.00
2019-03-20T04:30:20.599Z,128.82
2019-03-20T04:32:51.353Z,131.93
2019-03-20T04:35:22.194Z,125.18
2019-03-20T04:37:52.837Z,114.10
2019-03-20T04:40:23.589Z,105.67
2019-03-20T04:42:54.464Z,111.85
2019-03-20T04:45:25.321Z,100.42
2019-03-20T04:47:55.958Z,95.30
2019-03-20T04:52:56.556Z,79.42
2019-03-20T04:57:57.126Z,76.50
2019-03-20T05:00:27.902Z,89.60
2019-03-20T05:03:00.976Z,99.30
2019-03-20T05:05:30.836Z,73.80
2019-03-20T05:08:02.620Z,88.65
2019-03-20T05:10:33.370Z,127.60
2019-03-20T05:13:04.243Z,121.60
2019-03-20T05:18:04.615Z,90.70
2019-03-20T05:20:35.346Z,81.25
2019-03-20T05:23:08.384Z,67.45
2019-03-20T05:25:38.300Z,59.27
2019-03-20T05:28:09.159Z,47.43
2019-03-20T05:30:39.914Z,51.53
2019-03-20T05:33:10.563Z,38.78
2019-03-20T05:35:41.418Z,51.70
2019-03-20T05:38:12.171Z,47.17
2019-03-20T05:40:42.924Z,52.83
2019-03-20T05:43:13.577Z,37.80
2019-03-20T05:45:44.436Z,69.95
2019-03-20T05:48:15.070Z,45.20
2019-03-20T05:50:45.839Z,52.85
2019-03-20T05:53:16.474Z,40.80
2019-03-20T05:55:47.226Z,50.65
2019-03-20T05:58:17.561Z,54.05
2019-03-20T06:00:47.899Z,35.17
2019-03-20T06:03:18.263Z,36.48
2019-03-20T06:05:49.035Z,40.15
2019-03-20T06:08:20.794Z,54.83
2019-03-20T06:10:51.565Z,49.90
2019-03-20T06:13:22.307Z,51.75
2019-03-20T06:15:53.172Z,52.75
2019-03-20T06:18:23.909Z,43.60
2019-03-20T06:20:54.581Z,35.83
2019-03-20T06:23:25.440Z,35.78
2019-03-20T06:25:56.296Z,38.13
2019-03-20T06:28:27.046Z,36.77
2019-03-20T06:30:57.693Z,35.70
2019-03-20T06:33:28.551Z,31.48
2019-03-20T06:35:59.304Z,35.75
2019-03-20T06:38:30.060Z,33.65
2019-03-20T06:41:00.912Z,32.50
2019-03-20T06:43:31.772Z,37.95
2019-03-20T06:46:02.408Z,37.00
2019-03-20T06:51:03.112Z,30.52
2019-03-20T06:56:03.802Z,22.98
2019-03-20T07:01:16.251Z,29.45
2019-03-20T07:04:05.263Z,27.40
2019-03-20T07:06:51.306Z,24.92
2019-03-20T07:09:51.617Z,29.67
2019-03-20T07:12:22.253Z,31.45
2019-03-20T07:14:53.125Z,24.20
2019-03-20T07:17:23.779Z,31.95
2019-03-20T07:19:54.897Z,29.77
2019-03-20T07:22:25.594Z,30.52
2019-03-20T07:24:56.526Z,29.85
2019-03-20T07:27:26.998Z,27.45
2019-03-20T07:29:57.854Z,20.35
2019-03-20T07:32:30.057Z,24.87
2019-03-20T07:35:00.587Z,18.82
2019-03-20T07:37:33.648Z,19.17
2019-03-20T07:40:04.448Z,21.35
2019-03-20T07:42:35.307Z,16.65
2019-03-20T07:45:08.905Z,19.52
2019-03-20T07:47:39.247Z,20.10
2019-03-20T07:50:11.535Z,20.43
2019-03-20T07:52:42.189Z,23.83
2019-03-20T07:55:12.939Z,18.00
2019-03-20T07:57:43.818Z,23.65
2019-03-20T08:00:14.969Z,16.97
2019-03-20T08:02:45.716Z,20.72
2019-03-20T08:05:16.468Z,21.75
2019-03-20T08:07:47.340Z,20.40
2019-03-20T08:10:20.309Z,19.65
2019-03-20T08:12:50.792Z,21.12
2019-03-20T08:15:23.818Z,25.37
2019-03-20T08:17:54.447Z,24.32
2019-03-20T08:20:31.645Z,23.27
2019-03-20T08:23:02.500Z,27.60
2019-03-20T08:25:33.271Z,26.30
2019-03-20T08:28:04.009Z,30.50
2019-03-20T08:33:04.504Z,30.48
2019-03-20T08:35:35.145Z,35.50
2019-03-20T08:38:17.422Z,36.33
2019-03-20T08:40:40.027Z,39.40
2019-03-20T08:43:10.889Z,36.90
2019-03-20T08:45:41.659Z,37.95
2019-03-20T08:48:12.491Z,43.55
2019-03-20T08:50:43.255Z,30.50
2019-03-20T08:53:13.900Z,27.87
2019-03-20T08:55:44.754Z,29.63
2019-03-20T08:58:15.511Z,31.30
2019-03-20T09:00:46.265Z,30.17
2019-03-20T09:03:17.120Z,31.27
2019-03-20T09:05:48.080Z,26.45
2019-03-20T09:08:28.817Z,27.45
2019-03-20T09:10:52.244Z,28.35
2019-03-20T09:13:23.000Z,32.33
2019-03-20T09:15:53.757Z,26.48
2019-03-20T09:20:54.339Z,23.32
2019-03-20T09:23:24.991Z,23.52
2019-03-20T09:25:55.850Z,28.80
2019-03-20T09:28:26.601Z,25.70
2019-03-20T09:30:57.354Z,25.75
2019-03-20T09:33:28.211Z,26.10
2019-03-20T09:35:58.968Z,24.75
2019-03-20T09:38:29.620Z,26.75
2019-03-20T09:41:00.354Z,24.02
2019-03-20T09:43:30.797Z,26.10
2019-03-20T09:46:01.450Z,24.52
2019-03-20T09:48:32.105Z,23.52
2019-03-20T09:53:32.691Z,24.55
2019-03-20T09:56:03.459Z,23.05
2019-03-20T09:58:34.320Z,23.85
2019-03-20T10:01:05.059Z,23.00
2019-03-20T10:03:35.706Z,21.02
2019-03-20T10:08:36.297Z,60.52
2019-03-20T10:11:08.088Z,30.05
2019-03-20T10:13:38.723Z,37.28
2019-03-20T10:16:09.493Z,39.53
2019-03-20T10:18:40.350Z,28.45
2019-03-20T10:21:10.984Z,32.88
2019-03-20T10:23:41.756Z,22.98
2019-03-20T10:26:12.595Z,25.70
2019-03-20T10:28:43.261Z,24.07
2019-03-20T10:31:14.018Z,18.42
2019-03-20T10:33:44.771Z,22.70
2019-03-20T10:36:17.529Z,22.77
2019-03-20T10:38:48.795Z,31.07
2019-03-20T10:41:19.469Z,22.13
2019-03-20T10:43:52.259Z,24.20
2019-03-20T10:46:22.321Z,21.57
2019-03-20T10:48:52.956Z,25.20
2019-03-20T10:53:53.445Z,26.95
2019-03-20T10:56:24.112Z,25.75
2019-03-20T10:58:54.866Z,22.67
2019-03-20T11:01:25.522Z,21.37
2019-03-20T11:03:56.375Z,20.57
2019-03-20T11:06:27.227Z,24.12
2019-03-20T11:08:57.686Z,22.93
2019-03-20T11:11:29.251Z,24.50
2019-03-20T11:14:00.004Z,27.70
2019-03-20T11:16:30.863Z,36.03
2019-03-20T11:19:01.720Z,26.23
2019-03-20T11:21:32.570Z,24.50
2019-03-20T11:24:03.203Z,23.95
2019-03-20T11:26:33.866Z,23.22
2019-03-20T11:29:04.529Z,27.48
2019-03-20T11:31:35.381Z,33.50
2019-03-20T11:34:06.013Z,39.67
2019-03-20T11:36:36.791Z,73.92
2019-03-20T11:39:09.250Z,81.72
2019-03-20T11:41:39.604Z,74.10
2019-03-20T11:44:10.481Z,26.20
2019-03-20T11:46:41.232Z,28.50
2019-03-20T11:49:11.867Z,30.17
2019-03-20T11:51:45.607Z,43.95
2019-03-20T11:54:16.360Z,123.87
2019-03-20T11:56:47.012Z,183.00
2019-03-20T11:59:17.874Z,119.13
2019-03-20T12:01:48.500Z,57.15
2019-03-20T12:04:19.276Z,87.45
2019-03-20T12:06:49.936Z,93.35
2019-03-20T12:09:20.779Z,84.80
2019-03-20T12:11:51.637Z,39.53
2019-03-20T12:14:22.492Z,41.08
2019-03-20T12:16:53.144Z,32.10
2019-03-20T12:19:24.002Z,84.97
2019-03-20T12:21:55.043Z,35.88
2019-03-20T12:24:25.802Z,36.90
2019-03-20T12:26:56.676Z,27.60
2019-03-20T12:29:27.526Z,26.45
2019-03-20T12:31:58.381Z,35.35
2019-03-20T12:34:29.135Z,37.00
2019-03-20T12:36:59.788Z,36.58
2019-03-20T12:39:30.524Z,32.28
2019-03-20T12:42:01.277Z,36.28
2019-03-20T12:44:32.053Z,44.05
2019-03-20T12:47:02.701Z,37.42
2019-03-20T12:49:33.559Z,41.80
2019-03-20T12:52:04.417Z,29.77
2019-03-20T12:54:35.168Z,63.10
2019-03-20T12:57:05.817Z,30.62
2019-03-20T12:59:36.674Z,35.10
2019-03-20T13:02:08.299Z,37.05
2019-03-20T13:04:38.880Z,35.13
2019-03-20T13:07:09.652Z,36.65
2019-03-20T13:09:40.409Z,36.23
2019-03-20T13:12:12.062Z,34.70
2019-03-20T13:14:42.525Z,36.17
2019-03-20T13:17:13.382Z,33.25
2019-03-20T13:19:44.120Z,30.62
2019-03-20T13:22:14.993Z,35.75
2019-03-20T13:24:45.749Z,40.83
2019-03-20T13:27:16.404Z,36.03
2019-03-20T13:29:47.237Z,37.33
2019-03-20T13:32:18.020Z,44.35
2019-03-20T13:34:48.762Z,58.58
2019-03-20T13:37:19.401Z,43.87
2019-03-20T13:39:50.273Z,51.63
2019-03-20T13:42:21.023Z,49.45
2019-03-20T13:44:51.881Z,48.42
2019-03-20T13:47:22.737Z,45.28
2019-03-20T13:49:53.593Z,47.08
2019-03-20T13:52:24.225Z,49.58
2019-03-20T13:54:54.897Z,97.40
2019-03-20T13:57:25.753Z,62.50
2019-03-20T13:59:56.507Z,43.45
2019-03-20T14:02:27.260Z,50.25
2019-03-20T14:04:57.913Z,53.15
2019-03-20T14:07:28.766Z,52.53
2019-03-20T14:09:59.522Z,48.73
2019-03-20T14:12:33.416Z,46.70
2019-03-20T14:15:03.261Z,57.73
2019-03-20T14:17:34.239Z,66.97
2019-03-20T14:20:08.061Z,52.62
2019-03-20T14:22:38.799Z,51.98
2019-03-20T14:25:11.103Z,45.52
2019-03-20T14:27:41.427Z,50.28
2019-03-20T14:30:17.784Z,45.17
2019-03-20T14:32:48.155Z,49.90
2019-03-20T14:35:18.924Z,48.70
2019-03-20T14:37:49.719Z,52.38
2019-03-20T14:40:23.490Z,64.67
2019-03-20T14:42:54.016Z,67.90
2019-03-20T14:45:24.808Z,104.30
2019-03-20T14:47:56.158Z,152.25
2019-03-20T14:50:31.309Z,225.38
2019-03-20T14:53:01.673Z,128.80
2019-03-20T18:51:56.797Z,50.23
2019-03-20T18:54:27.568Z,45.50
2019-03-20T18:56:58.325Z,48.17
2019-03-20T18:59:28.973Z,53.23
2019-03-20T19:01:59.828Z,45.10
2019-03-20T19:04:30.590Z,41.45
2019-03-20T19:07:01.338Z,48.78
2019-03-20T19:09:32.307Z,43.80
2019-03-20T19:12:08.522Z,44.80
2019-03-20T19:14:35.234Z,42.65
2019-03-20T19:17:05.889Z,44.80
2019-03-20T19:19:36.745Z,48.58
2019-03-20T19:22:07.814Z,49.23
2019-03-20T19:24:38.438Z,47.33
2019-03-20T19:29:38.923Z,54.33
2019-03-20T19:32:09.694Z,48.73
2019-03-20T19:34:40.430Z,38.38
2019-03-20T19:37:11.306Z,38.58
2019-03-20T19:39:44.818Z,37.10
2019-03-20T19:42:20.223Z,35.88
2019-03-20T19:44:49.189Z,35.65
2019-03-20T19:47:20.047Z,38.50
2019-03-20T19:49:50.799Z,36.25
2019-03-20T19:52:21.657Z,36.38
2019-03-20T19:54:53.431Z,36.30
2019-03-20T19:57:23.881Z,31.48
2019-03-20T19:59:54.735Z,36.68
2019-03-20T20:02:25.592Z,31.20
2019-03-20T20:04:56.229Z,31.52
2019-03-20T20:09:56.831Z,27.22
2019-03-20T20:12:31.390Z,28.55
2019-03-20T20:14:59.770Z,28.27
2019-03-20T20:17:30.609Z,29.25
2019-03-20T20:20:01.383Z,33.45
2019-03-20T20:22:32.136Z,27.55
2019-03-20T20:25:02.992Z,31.05
2019-03-20T20:27:33.748Z,32.20
2019-03-20T20:30:07.057Z,26.40
2019-03-20T20:32:37.810Z,26.60
2019-03-20T20:35:10.098Z,29.12
2019-03-20T20:37:40.549Z,22.30
2019-03-20T20:40:29.093Z,21.42
2019-03-20T20:42:59.949Z,20.02
2019-03-20T20:45:30.601Z,14.90
2019-03-20T20:48:01.462Z,14.40
2019-03-20T20:50:32.222Z,13.58
2019-03-20T20:53:02.998Z,12.75
2019-03-20T20:55:33.926Z,14.40
2019-03-20T20:58:04.781Z,13.35
2019-03-20T21:00:35.553Z,13.22
2019-03-20T21:03:06.168Z,15.48
2019-03-20T21:05:37.450Z,12.35
2019-03-20T21:08:08.185Z,15.32
2019-03-20T21:10:38.840Z,13.03
2019-03-20T21:13:09.711Z,17.27
2019-03-20T21:15:45.479Z,13.10
2019-03-20T21:18:35.134Z,13.70
2019-03-20T21:21:05.908Z,15.08
2019-03-20T21:23:59.260Z,16.35
2019-03-20T21:26:35.679Z,18.25
2019-03-20T21:29:35.340Z,14.63
2019-03-20T21:32:15.195Z,13.03
2019-03-20T21:35:22.566Z,14.90
2019-03-20T21:38:10.805Z,15.65
2019-03-20T21:41:02.526Z,16.82
2019-03-20T21:44:00.572Z,15.55
2019-03-20T21:46:49.528Z,15.15
2019-03-20T21:49:20.206Z,12.80
2019-03-20T21:51:50.833Z,17.73
2019-03-20T21:54:50.632Z,18.07
2019-03-20T21:57:28.883Z,21.50
2019-03-20T22:00:14.438Z,17.62
2019-03-20T22:02:45.499Z,20.50
2019-03-20T22:05:53.812Z,21.97
2019-03-20T22:08:24.561Z,20.62
2019-03-20T22:11:17.609Z,16.62
2019-03-20T22:13:51.429Z,17.00
2019-03-20T22:16:43.439Z,16.82
2019-03-20T22:19:50.503Z,17.25
2019-03-20T22:22:42.545Z,19.82
2019-03-20T22:25:19.017Z,19.75
2019-03-20T22:27:55.591Z,19.23
2019-03-20T22:30:26.261Z,17.00
2019-03-20T22:33:05.797Z,20.65
2019-03-20T22:35:39.722Z,19.73
2019-03-20T22:38:13.561Z,27.58
2019-03-20T22:41:05.487Z,22.75
2019-03-20T22:43:40.842Z,23.85
2019-03-20T22:46:31.537Z,25.30
2019-03-20T22:52:01.375Z,29.07
2019-03-20T22:54:43.381Z,28.32
2019-03-20T22:57:44.509Z,25.97
2019-03-20T23:00:18.564Z,27.80
2019-03-20T23:02:52.040Z,30.12
2019-03-20T23:05:24.337Z,27.60
2019-03-20T23:07:55.097Z,27.67
2019-03-20T23:10:25.744Z,28.38
2019-03-20T23:12:56.604Z,28.40
2019-03-20T23:15:27.235Z,30.55
2019-03-20T23:17:58.008Z,27.00
2019-03-20T23:20:29.253Z,26.65
2019-03-20T23:23:00.033Z,26.17
2019-03-20T23:25:30.865Z,27.85
2019-03-20T23:28:01.742Z,30.90
2019-03-20T23:30:34.214Z,34.15
2019-03-20T23:33:04.778Z,27.48
2019-03-20T23:38:05.162Z,24.37
2019-03-20T23:40:36.208Z,27.65
2019-03-20T23:43:10.289Z,25.97
2019-03-20T23:45:40.986Z,27.55
2019-03-20T23:48:24.851Z,26.82
2019-03-20T23:51:07.570Z,25.35
2019-03-20T23:53:39.119Z,24.10
2019-03-20T23:56:09.898Z,26.23
2019-03-20T23:58:41.551Z,25.25
